sensor_id;sensor_type;location;lat;lon;timestamp;P1;durP1;ratioP1;P2;durP2;ratioP2
74510;SDS011;62991;50.040;18.400;2022-10-29T00:00:11;13.02;;;4.95;;
74510;SDS011;62991;50.040;18.400;2022-10-29T00:03:12;8.50;;;3.90;;
74510;SDS011;62991;50.040;18.400;2022-10-29T00:06:13;12.75;;;5.38;;
74510;SDS011;62991;50.040;18.400;2022-10-29T00:09:14;9.50;;;3.90;;
74510;SDS011;62991;50.040;18.400;2022-10-29T00:12:15;8.60;;;3.90;;
74510;SDS011;62991;50.040;18.400;2022-10-29T00:15:15;14.85;;;3.92;;
74510;SDS011;62991;50.040;18.400;2022-10-29T00:18:16;12.82;;;5.85;;
74510;SDS011;62991;50.040;18.400;2022-10-29T00:21:18;11.65;;;5.32;;
74510;SDS011;62991;50.040;18.400;2022-10-29T00:24:20;9.07;;;3.88;;
74510;SDS011;62991;50.040;18.400;2022-10-29T00:27:21;11.80;;;4.20;;
74510;SDS011;62991;50.040;18.400;2022-10-29T00:30:22;5.93;;;3.05;;
74510;SDS011;62991;50.040;18.400;2022-10-29T00:33:22;3.88;;;2.28;;
74510;SDS011;62991;50.040;18.400;2022-10-29T00:36:25;11.63;;;5.28;;
74510;SDS011;62991;50.040;18.400;2022-10-29T00:39:27;13.27;;;3.95;;
74510;SDS011;62991;50.040;18.400;2022-10-29T00:42:28;10.65;;;4.50;;
74510;SDS011;62991;50.040;18.400;2022-10-29T00:45:29;10.43;;;4.05;;
74510;SDS011;62991;50.040;18.400;2022-10-29T00:48:30;11.25;;;4.47;;
74510;SDS011;62991;50.040;18.400;2022-10-29T00:51:33;12.25;;;5.57;;
74510;SDS011;62991;50.040;18.400;2022-10-29T00:54:35;8.35;;;4.18;;
74510;SDS011;62991;50.040;18.400;2022-10-29T00:57:41;12.90;;;4.65;;
74510;SDS011;62991;50.040;18.400;2022-10-29T01:00:47;13.95;;;5.05;;
74510;SDS011;62991;50.040;18.400;2022-10-29T01:03:48;12.00;;;5.40;;
74510;SDS011;62991;50.040;18.400;2022-10-29T01:06:51;12.77;;;5.03;;
74510;SDS011;62991;50.040;18.400;2022-10-29T01:09:52;11.65;;;4.20;;
74510;SDS011;62991;50.040;18.400;2022-10-29T01:23:26;10.88;;;4.50;;
74510;SDS011;62991;50.040;18.400;2022-10-29T01:29:45;6.20;;;2.70;;
74510;SDS011;62991;50.040;18.400;2022-10-29T01:33:16;15.27;;;6.03;;
74510;SDS011;62991;50.040;18.400;2022-10-29T01:36:24;13.02;;;4.40;;
74510;SDS011;62991;50.040;18.400;2022-10-29T01:42:46;10.73;;;4.13;;
74510;SDS011;62991;50.040;18.400;2022-10-29T01:45:57;4.40;;;2.40;;
74510;SDS011;62991;50.040;18.400;2022-10-29T01:49:20;4.55;;;1.85;;
74510;SDS011;62991;50.040;18.400;2022-10-29T01:52:28;12.68;;;4.95;;
74510;SDS011;62991;50.040;18.400;2022-10-29T01:55:32;8.30;;;4.32;;
74510;SDS011;62991;50.040;18.400;2022-10-29T01:58:36;12.98;;;5.22;;
74510;SDS011;62991;50.040;18.400;2022-10-29T02:15:16;10.35;;;3.90;;
74510;SDS011;62991;50.040;18.400;2022-10-29T02:18:20;6.97;;;2.15;;
74510;SDS011;62991;50.040;18.400;2022-10-29T02:21:21;12.10;;;4.83;;
74510;SDS011;62991;50.040;18.400;2022-10-29T02:24:22;10.50;;;4.65;;
74510;SDS011;62991;50.040;18.400;2022-10-29T02:27:23;11.82;;;4.05;;
74510;SDS011;62991;50.040;18.400;2022-10-29T02:30:24;9.05;;;4.85;;
74510;SDS011;62991;50.040;18.400;2022-10-29T02:33:25;11.65;;;4.55;;
74510;SDS011;62991;50.040;18.400;2022-10-29T02:36:25;7.43;;;3.03;;
74510;SDS011;62991;50.040;18.400;2022-10-29T02:39:26;13.98;;;5.30;;
74510;SDS011;62991;50.040;18.400;2022-10-29T02:42:27;12.52;;;5.38;;
74510;SDS011;62991;50.040;18.400;2022-10-29T02:45:28;11.55;;;4.38;;
74510;SDS011;62991;50.040;18.400;2022-10-29T02:48:28;16.02;;;5.60;;
74510;SDS011;62991;50.040;18.400;2022-10-29T02:51:29;17.25;;;5.47;;
74510;SDS011;62991;50.040;18.400;2022-10-29T02:54:30;10.02;;;4.03;;
74510;SDS011;62991;50.040;18.400;2022-10-29T02:57:30;7.88;;;3.72;;
74510;SDS011;62991;50.040;18.400;2022-10-29T03:00:31;7.03;;;2.85;;
74510;SDS011;62991;50.040;18.400;2022-10-29T03:03:32;16.90;;;5.22;;
74510;SDS011;62991;50.040;18.400;2022-10-29T03:06:32;13.07;;;4.75;;
74510;SDS011;62991;50.040;18.400;2022-10-29T03:09:33;9.93;;;4.60;;
74510;SDS011;62991;50.040;18.400;2022-10-29T03:12:34;9.18;;;4.13;;
74510;SDS011;62991;50.040;18.400;2022-10-29T03:15:35;13.35;;;4.97;;
74510;SDS011;62991;50.040;18.400;2022-10-29T03:18:36;6.25;;;2.60;;
74510;SDS011;62991;50.040;18.400;2022-10-29T03:21:36;14.90;;;5.47;;
74510;SDS011;62991;50.040;18.400;2022-10-29T03:24:37;12.18;;;4.85;;
74510;SDS011;62991;50.040;18.400;2022-10-29T03:27:41;11.10;;;3.42;;
74510;SDS011;62991;50.040;18.400;2022-10-29T03:30:43;12.63;;;5.38;;
74510;SDS011;62991;50.040;18.400;2022-10-29T03:33:43;9.13;;;4.22;;
74510;SDS011;62991;50.040;18.400;2022-10-29T03:36:44;15.10;;;5.40;;
74510;SDS011;62991;50.040;18.400;2022-10-29T03:39:45;10.52;;;4.60;;
74510;SDS011;62991;50.040;18.400;2022-10-29T03:42:45;13.05;;;5.47;;
74510;SDS011;62991;50.040;18.400;2022-10-29T03:45:53;12.25;;;4.68;;
74510;SDS011;62991;50.040;18.400;2022-10-29T03:48:55;12.07;;;4.82;;
74510;SDS011;62991;50.040;18.400;2022-10-29T03:51:56;8.48;;;3.58;;
74510;SDS011;62991;50.040;18.400;2022-10-29T03:54:56;1.83;;;1.17;;
74510;SDS011;62991;50.040;18.400;2022-10-29T03:57:57;14.43;;;4.90;;
74510;SDS011;62991;50.040;18.400;2022-10-29T04:00:59;12.70;;;4.95;;
74510;SDS011;62991;50.040;18.400;2022-10-29T04:04:01;15.40;;;6.07;;
74510;SDS011;62991;50.040;18.400;2022-10-29T04:07:01;7.07;;;3.83;;
74510;SDS011;62991;50.040;18.400;2022-10-29T04:10:02;10.38;;;3.72;;
74510;SDS011;62991;50.040;18.400;2022-10-29T04:13:03;8.43;;;3.75;;
74510;SDS011;62991;50.040;18.400;2022-10-29T04:16:04;7.53;;;3.45;;
74510;SDS011;62991;50.040;18.400;2022-10-29T04:19:05;9.35;;;4.45;;
74510;SDS011;62991;50.040;18.400;2022-10-29T04:22:05;8.23;;;4.07;;
74510;SDS011;62991;50.040;18.400;2022-10-29T04:25:06;6.05;;;3.30;;
74510;SDS011;62991;50.040;18.400;2022-10-29T04:28:07;4.13;;;2.33;;
74510;SDS011;62991;50.040;18.400;2022-10-29T04:31:09;10.50;;;5.15;;
74510;SDS011;62991;50.040;18.400;2022-10-29T04:34:11;11.43;;;4.97;;
74510;SDS011;62991;50.040;18.400;2022-10-29T04:37:12;9.68;;;4.38;;
74510;SDS011;62991;50.040;18.400;2022-10-29T04:40:12;8.38;;;4.20;;
74510;SDS011;62991;50.040;18.400;2022-10-29T04:43:13;10.50;;;4.13;;
74510;SDS011;62991;50.040;18.400;2022-10-29T04:46:14;7.93;;;4.13;;
74510;SDS011;62991;50.040;18.400;2022-10-29T04:49:15;10.43;;;4.60;;
74510;SDS011;62991;50.040;18.400;2022-10-29T04:52:16;9.48;;;4.07;;
74510;SDS011;62991;50.040;18.400;2022-10-29T04:55:16;5.80;;;2.78;;
74510;SDS011;62991;50.040;18.400;2022-10-29T04:58:17;12.25;;;3.80;;
74510;SDS011;62991;50.040;18.400;2022-10-29T05:01:19;8.23;;;4.35;;
74510;SDS011;62991;50.040;18.400;2022-10-29T05:04:19;10.43;;;4.38;;
74510;SDS011;62991;50.040;18.400;2022-10-29T05:07:20;4.82;;;2.67;;
74510;SDS011;62991;50.040;18.400;2022-10-29T05:10:21;9.43;;;3.90;;
74510;SDS011;62991;50.040;18.400;2022-10-29T05:13:21;6.18;;;3.15;;
74510;SDS011;62991;50.040;18.400;2022-10-29T05:16:22;12.05;;;4.82;;
74510;SDS011;62991;50.040;18.400;2022-10-29T05:19:23;10.07;;;4.45;;
74510;SDS011;62991;50.040;18.400;2022-10-29T05:22:24;10.27;;;4.47;;
74510;SDS011;62991;50.040;18.400;2022-10-29T05:25:24;11.63;;;5.55;;
74510;SDS011;62991;50.040;18.400;2022-10-29T05:28:25;9.85;;;4.20;;
74510;SDS011;62991;50.040;18.400;2022-10-29T05:31:26;8.85;;;4.18;;
74510;SDS011;62991;50.040;18.400;2022-10-29T05:34:26;9.25;;;4.00;;
74510;SDS011;62991;50.040;18.400;2022-10-29T05:37:27;8.10;;;4.00;;
74510;SDS011;62991;50.040;18.400;2022-10-29T05:40:28;10.65;;;4.05;;
74510;SDS011;62991;50.040;18.400;2022-10-29T05:43:28;11.68;;;4.30;;
74510;SDS011;62991;50.040;18.400;2022-10-29T05:46:29;9.98;;;4.13;;
74510;SDS011;62991;50.040;18.400;2022-10-29T05:49:30;11.40;;;4.78;;
74510;SDS011;62991;50.040;18.400;2022-10-29T05:52:31;9.48;;;4.10;;
74510;SDS011;62991;50.040;18.400;2022-10-29T05:55:32;10.57;;;5.45;;
74510;SDS011;62991;50.040;18.400;2022-10-29T05:58:34;7.45;;;3.80;;
74510;SDS011;62991;50.040;18.400;2022-10-29T06:01:34;15.98;;;4.28;;
74510;SDS011;62991;50.040;18.400;2022-10-29T06:04:35;14.00;;;5.47;;
74510;SDS011;62991;50.040;18.400;2022-10-29T06:07:36;11.15;;;3.38;;
74510;SDS011;62991;50.040;18.400;2022-10-29T06:10:37;10.73;;;3.92;;
74510;SDS011;62991;50.040;18.400;2022-10-29T06:13:38;10.57;;;4.47;;
74510;SDS011;62991;50.040;18.400;2022-10-29T06:16:39;9.77;;;4.75;;
74510;SDS011;62991;50.040;18.400;2022-10-29T06:19:42;13.77;;;5.65;;
74510;SDS011;62991;50.040;18.400;2022-10-29T06:22:43;21.20;;;6.57;;
74510;SDS011;62991;50.040;18.400;2022-10-29T06:25:43;12.00;;;5.68;;
74510;SDS011;62991;50.040;18.400;2022-10-29T06:28:44;15.15;;;6.50;;
74510;SDS011;62991;50.040;18.400;2022-10-29T06:31:45;16.05;;;7.45;;
74510;SDS011;62991;50.040;18.400;2022-10-29T06:34:45;15.13;;;6.32;;
74510;SDS011;62991;50.040;18.400;2022-10-29T06:37:46;18.85;;;7.40;;
74510;SDS011;62991;50.040;18.400;2022-10-29T06:40:50;18.33;;;6.93;;
74510;SDS011;62991;50.040;18.400;2022-10-29T06:43:54;14.85;;;6.35;;
74510;SDS011;62991;50.040;18.400;2022-10-29T06:46:55;13.80;;;5.57;;
74510;SDS011;62991;50.040;18.400;2022-10-29T06:49:56;14.77;;;5.07;;
74510;SDS011;62991;50.040;18.400;2022-10-29T06:52:57;12.20;;;4.90;;
74510;SDS011;62991;50.040;18.400;2022-10-29T06:55:59;13.27;;;5.63;;
74510;SDS011;62991;50.040;18.400;2022-10-29T06:59:00;13.38;;;6.20;;
74510;SDS011;62991;50.040;18.400;2022-10-29T07:02:01;11.07;;;6.15;;
74510;SDS011;62991;50.040;18.400;2022-10-29T07:05:01;15.75;;;6.13;;
74510;SDS011;62991;50.040;18.400;2022-10-29T07:08:02;9.45;;;4.35;;
74510;SDS011;62991;50.040;18.400;2022-10-29T07:11:03;12.68;;;3.70;;
74510;SDS011;62991;50.040;18.400;2022-10-29T07:14:04;6.20;;;2.45;;
74510;SDS011;62991;50.040;18.400;2022-10-29T07:17:07;11.13;;;4.88;;
74510;SDS011;62991;50.040;18.400;2022-10-29T07:20:08;14.02;;;6.38;;
74510;SDS011;62991;50.040;18.400;2022-10-29T07:23:10;15.50;;;5.85;;
74510;SDS011;62991;50.040;18.400;2022-10-29T07:26:11;5.40;;;2.65;;
74510;SDS011;62991;50.040;18.400;2022-10-29T07:29:12;12.57;;;5.20;;
74510;SDS011;62991;50.040;18.400;2022-10-29T07:32:13;13.73;;;5.75;;
74510;SDS011;62991;50.040;18.400;2022-10-29T07:35:13;13.63;;;5.38;;
74510;SDS011;62991;50.040;18.400;2022-10-29T07:38:14;8.52;;;4.32;;
74510;SDS011;62991;50.040;18.400;2022-10-29T07:41:15;3.45;;;1.48;;
74510;SDS011;62991;50.040;18.400;2022-10-29T07:44:16;12.40;;;4.55;;
74510;SDS011;62991;50.040;18.400;2022-10-29T07:47:16;12.02;;;4.88;;
74510;SDS011;62991;50.040;18.400;2022-10-29T07:50:17;17.30;;;6.28;;
74510;SDS011;62991;50.040;18.400;2022-10-29T07:53:18;11.25;;;4.35;;
74510;SDS011;62991;50.040;18.400;2022-10-29T07:56:18;9.52;;;4.30;;
74510;SDS011;62991;50.040;18.400;2022-10-29T07:59:19;9.45;;;3.55;;
74510;SDS011;62991;50.040;18.400;2022-10-29T08:02:20;9.23;;;3.70;;
74510;SDS011;62991;50.040;18.400;2022-10-29T08:05:21;6.68;;;2.60;;
74510;SDS011;62991;50.040;18.400;2022-10-29T08:08:23;4.30;;;1.75;;
74510;SDS011;62991;50.040;18.400;2022-10-29T08:11:24;15.82;;;5.10;;
74510;SDS011;62991;50.040;18.400;2022-10-29T08:14:25;5.05;;;2.83;;
74510;SDS011;62991;50.040;18.400;2022-10-29T08:17:27;10.23;;;4.63;;
74510;SDS011;62991;50.040;18.400;2022-10-29T08:20:29;10.15;;;4.65;;
74510;SDS011;62991;50.040;18.400;2022-10-29T08:23:30;8.98;;;3.47;;
74510;SDS011;62991;50.040;18.400;2022-10-29T08:26:31;12.80;;;4.35;;
74510;SDS011;62991;50.040;18.400;2022-10-29T08:29:32;12.25;;;5.07;;
74510;SDS011;62991;50.040;18.400;2022-10-29T08:32:32;9.57;;;3.38;;
74510;SDS011;62991;50.040;18.400;2022-10-29T08:35:34;9.90;;;4.30;;
74510;SDS011;62991;50.040;18.400;2022-10-29T08:38:35;8.57;;;3.35;;
74510;SDS011;62991;50.040;18.400;2022-10-29T08:51:35;6.18;;;2.35;;
74510;SDS011;62991;50.040;18.400;2022-10-29T08:54:39;11.20;;;3.83;;
74510;SDS011;62991;50.040;18.400;2022-10-29T08:57:51;7.72;;;4.38;;
74510;SDS011;62991;50.040;18.400;2022-10-29T09:00:58;4.22;;;2.40;;
74510;SDS011;62991;50.040;18.400;2022-10-29T09:03:59;9.80;;;4.90;;
74510;SDS011;62991;50.040;18.400;2022-10-29T09:07:15;10.07;;;4.75;;
74510;SDS011;62991;50.040;18.400;2022-10-29T09:10:31;7.63;;;3.75;;
74510;SDS011;62991;50.040;18.400;2022-10-29T09:20:17;7.13;;;3.05;;
74510;SDS011;62991;50.040;18.400;2022-10-29T09:26:58;10.32;;;4.53;;
74510;SDS011;62991;50.040;18.400;2022-10-29T09:30:07;6.63;;;2.63;;
74510;SDS011;62991;50.040;18.400;2022-10-29T09:33:20;9.90;;;4.05;;
74510;SDS011;62991;50.040;18.400;2022-10-29T09:36:22;10.77;;;4.25;;
74510;SDS011;62991;50.040;18.400;2022-10-29T09:39:27;9.45;;;3.78;;
74510;SDS011;62991;50.040;18.400;2022-10-29T09:42:33;7.78;;;3.72;;
74510;SDS011;62991;50.040;18.400;2022-10-29T09:45:42;8.77;;;3.22;;
74510;SDS011;62991;50.040;18.400;2022-10-29T09:52:30;13.07;;;4.40;;
74510;SDS011;62991;50.040;18.400;2022-10-29T09:55:40;8.45;;;4.43;;
74510;SDS011;62991;50.040;18.400;2022-10-29T09:58:43;9.57;;;4.13;;
74510;SDS011;62991;50.040;18.400;2022-10-29T10:01:51;7.82;;;3.85;;
74510;SDS011;62991;50.040;18.400;2022-10-29T10:04:53;6.82;;;3.72;;
74510;SDS011;62991;50.040;18.400;2022-10-29T10:11:05;11.75;;;4.80;;
74510;SDS011;62991;50.040;18.400;2022-10-29T10:14:17;6.85;;;3.50;;
74510;SDS011;62991;50.040;18.400;2022-10-29T10:17:20;10.23;;;4.50;;
74510;SDS011;62991;50.040;18.400;2022-10-29T10:20:26;7.75;;;3.30;;
74510;SDS011;62991;50.040;18.400;2022-10-29T10:23:40;11.57;;;4.97;;
74510;SDS011;62991;50.040;18.400;2022-10-29T10:26:43;10.90;;;5.22;;
74510;SDS011;62991;50.040;18.400;2022-10-29T10:29:47;6.30;;;3.00;;
74510;SDS011;62991;50.040;18.400;2022-10-29T10:33:11;9.15;;;3.55;;
74510;SDS011;62991;50.040;18.400;2022-10-29T10:36:23;8.18;;;4.25;;
74510;SDS011;62991;50.040;18.400;2022-10-29T10:39:41;10.50;;;5.05;;
74510;SDS011;62991;50.040;18.400;2022-10-29T10:42:52;11.18;;;4.93;;
74510;SDS011;62991;50.040;18.400;2022-10-29T10:45:58;26.02;;;13.23;;
74510;SDS011;62991;50.040;18.400;2022-10-29T10:49:13;14.55;;;5.78;;
74510;SDS011;62991;50.040;18.400;2022-10-29T10:52:21;15.10;;;5.70;;
74510;SDS011;62991;50.040;18.400;2022-10-29T10:58:40;11.73;;;4.47;;
74510;SDS011;62991;50.040;18.400;2022-10-29T11:01:45;16.63;;;5.32;;
74510;SDS011;62991;50.040;18.400;2022-10-29T11:04:52;18.60;;;6.07;;
74510;SDS011;62991;50.040;18.400;2022-10-29T11:11:27;20.25;;;7.15;;
74510;SDS011;62991;50.040;18.400;2022-10-29T11:14:32;14.48;;;6.30;;
74510;SDS011;62991;50.040;18.400;2022-10-29T11:17:53;11.55;;;5.53;;
74510;SDS011;62991;50.040;18.400;2022-10-29T11:24:13;9.73;;;4.50;;
74510;SDS011;62991;50.040;18.400;2022-10-29T11:30:23;12.88;;;4.82;;
74510;SDS011;62991;50.040;18.400;2022-10-29T11:36:33;15.32;;;5.93;;
74510;SDS011;62991;50.040;18.400;2022-10-29T11:39:50;10.60;;;5.30;;
74510;SDS011;62991;50.040;18.400;2022-10-29T11:42:56;11.82;;;5.25;;
74510;SDS011;62991;50.040;18.400;2022-10-29T11:46:03;13.52;;;4.97;;
74510;SDS011;62991;50.040;18.400;2022-10-29T11:52:28;8.93;;;5.00;;
74510;SDS011;62991;50.040;18.400;2022-10-29T12:03:19;9.30;;;4.63;;
74510;SDS011;62991;50.040;18.400;2022-10-29T12:13:35;11.93;;;4.75;;
74510;SDS011;62991;50.040;18.400;2022-10-29T12:20:24;12.88;;;5.70;;
74510;SDS011;62991;50.040;18.400;2022-10-29T12:30:22;11.77;;;5.20;;
74510;SDS011;62991;50.040;18.400;2022-10-29T12:33:27;13.35;;;5.60;;
74510;SDS011;62991;50.040;18.400;2022-10-29T12:36:34;9.80;;;5.32;;
74510;SDS011;62991;50.040;18.400;2022-10-29T12:39:46;10.18;;;4.93;;
74510;SDS011;62991;50.040;18.400;2022-10-29T12:42:49;14.40;;;5.72;;
74510;SDS011;62991;50.040;18.400;2022-10-29T12:49:01;14.05;;;5.65;;
74510;SDS011;62991;50.040;18.400;2022-10-29T12:55:36;13.93;;;6.25;;
74510;SDS011;62991;50.040;18.400;2022-10-29T13:01:51;12.73;;;5.45;;
74510;SDS011;62991;50.040;18.400;2022-10-29T13:11:17;17.98;;;7.03;;
74510;SDS011;62991;50.040;18.400;2022-10-29T13:17:32;13.23;;;6.13;;
74510;SDS011;62991;50.040;18.400;2022-10-29T13:20:36;12.55;;;6.00;;
74510;SDS011;62991;50.040;18.400;2022-10-29T13:23:40;12.38;;;5.68;;
74510;SDS011;62991;50.040;18.400;2022-10-29T13:39:30;11.82;;;6.00;;
74510;SDS011;62991;50.040;18.400;2022-10-29T13:42:31;16.63;;;7.10;;
74510;SDS011;62991;50.040;18.400;2022-10-29T13:45:32;12.27;;;5.97;;
74510;SDS011;62991;50.040;18.400;2022-10-29T13:48:34;12.63;;;6.57;;
74510;SDS011;62991;50.040;18.400;2022-10-29T13:51:41;12.43;;;5.72;;
74510;SDS011;62991;50.040;18.400;2022-10-29T13:58:30;13.20;;;6.72;;
74510;SDS011;62991;50.040;18.400;2022-10-29T14:01:24;20.30;;;10.07;;
74510;SDS011;62991;50.040;18.400;2022-10-29T14:04:34;32.72;;;12.27;;
74510;SDS011;62991;50.040;18.400;2022-10-29T14:07:41;30.40;;;12.13;;
74510;SDS011;62991;50.040;18.400;2022-10-29T14:11:47;19.02;;;8.15;;
74510;SDS011;62991;50.040;18.400;2022-10-29T14:14:31;26.73;;;10.43;;
74510;SDS011;62991;50.040;18.400;2022-10-29T14:17:36;21.08;;;8.60;;
74510;SDS011;62991;50.040;18.400;2022-10-29T14:20:39;27.70;;;9.35;;
74510;SDS011;62991;50.040;18.400;2022-10-29T14:23:39;26.73;;;10.63;;
74510;SDS011;62991;50.040;18.400;2022-10-29T14:27:04;29.02;;;11.70;;
74510;SDS011;62991;50.040;18.400;2022-10-29T14:30:10;20.38;;;9.38;;
74510;SDS011;62991;50.040;18.400;2022-10-29T14:33:56;28.73;;;12.35;;
74510;SDS011;62991;50.040;18.400;2022-10-29T14:36:42;20.75;;;9.23;;
74510;SDS011;62991;50.040;18.400;2022-10-29T14:39:51;28.05;;;10.60;;
74510;SDS011;62991;50.040;18.400;2022-10-29T14:42:55;24.67;;;10.85;;
74510;SDS011;62991;50.040;18.400;2022-10-29T14:46:07;23.98;;;10.20;;
74510;SDS011;62991;50.040;18.400;2022-10-29T14:49:20;28.90;;;12.10;;
74510;SDS011;62991;50.040;18.400;2022-10-29T14:55:55;23.08;;;10.18;;
74510;SDS011;62991;50.040;18.400;2022-10-29T14:58:57;23.90;;;10.50;;
74510;SDS011;62991;50.040;18.400;2022-10-29T15:02:01;31.85;;;11.52;;
74510;SDS011;62991;50.040;18.400;2022-10-29T15:05:22;28.67;;;11.02;;
74510;SDS011;62991;50.040;18.400;2022-10-29T15:08:23;23.20;;;10.43;;
74510;SDS011;62991;50.040;18.400;2022-10-29T15:17:29;21.02;;;8.75;;
74510;SDS011;62991;50.040;18.400;2022-10-29T15:23:32;24.95;;;10.48;;
74510;SDS011;62991;50.040;18.400;2022-10-29T15:26:46;28.33;;;9.38;;
74510;SDS011;62991;50.040;18.400;2022-10-29T15:29:58;18.55;;;9.13;;
74510;SDS011;62991;50.040;18.400;2022-10-29T15:32:59;20.25;;;8.57;;
74510;SDS011;62991;50.040;18.400;2022-10-29T15:36:02;18.45;;;8.15;;
74510;SDS011;62991;50.040;18.400;2022-10-29T15:39:08;26.95;;;10.70;;
74510;SDS011;62991;50.040;18.400;2022-10-29T15:42:18;33.05;;;14.15;;
74510;SDS011;62991;50.040;18.400;2022-10-29T15:45:22;26.00;;;11.40;;
74510;SDS011;62991;50.040;18.400;2022-10-29T15:51:26;28.25;;;10.43;;
74510;SDS011;62991;50.040;18.400;2022-10-29T15:54:28;27.63;;;11.95;;
74510;SDS011;62991;50.040;18.400;2022-10-29T15:57:29;29.55;;;11.45;;
74510;SDS011;62991;50.040;18.400;2022-10-29T16:00:31;32.75;;;14.80;;
74510;SDS011;62991;50.040;18.400;2022-10-29T16:03:37;34.53;;;13.60;;
74510;SDS011;62991;50.040;18.400;2022-10-29T16:06:38;38.53;;;16.20;;
74510;SDS011;62991;50.040;18.400;2022-10-29T16:09:44;31.08;;;12.63;;
74510;SDS011;62991;50.040;18.400;2022-10-29T16:12:48;37.08;;;16.13;;
74510;SDS011;62991;50.040;18.400;2022-10-29T16:15:49;57.67;;;23.17;;
74510;SDS011;62991;50.040;18.400;2022-10-29T16:18:50;45.55;;;19.58;;
74510;SDS011;62991;50.040;18.400;2022-10-29T16:21:51;35.70;;;17.40;;
74510;SDS011;62991;50.040;18.400;2022-10-29T16:24:52;34.83;;;13.73;;
74510;SDS011;62991;50.040;18.400;2022-10-29T16:27:53;47.08;;;17.83;;
74510;SDS011;62991;50.040;18.400;2022-10-29T16:30:56;49.83;;;21.33;;
74510;SDS011;62991;50.040;18.400;2022-10-29T16:33:59;46.42;;;18.42;;
74510;SDS011;62991;50.040;18.400;2022-10-29T16:37:02;51.88;;;17.88;;
74510;SDS011;62991;50.040;18.400;2022-10-29T16:40:03;30.83;;;12.93;;
74510;SDS011;62991;50.040;18.400;2022-10-29T16:43:04;37.53;;;14.35;;
74510;SDS011;62991;50.040;18.400;2022-10-29T16:46:05;36.38;;;14.10;;
74510;SDS011;62991;50.040;18.400;2022-10-29T16:49:06;41.42;;;15.07;;
74510;SDS011;62991;50.040;18.400;2022-10-29T16:52:07;20.17;;;7.55;;
74510;SDS011;62991;50.040;18.400;2022-10-29T16:55:09;53.60;;;20.33;;
74510;SDS011;62991;50.040;18.400;2022-10-29T16:58:11;37.53;;;12.80;;
74510;SDS011;62991;50.040;18.400;2022-10-29T17:01:14;26.88;;;12.80;;
74510;SDS011;62991;50.040;18.400;2022-10-29T17:04:14;37.30;;;12.18;;
74510;SDS011;62991;50.040;18.400;2022-10-29T17:07:15;45.45;;;16.05;;
74510;SDS011;62991;50.040;18.400;2022-10-29T17:10:16;54.33;;;17.05;;
74510;SDS011;62991;50.040;18.400;2022-10-29T17:13:17;44.55;;;15.35;;
74510;SDS011;62991;50.040;18.400;2022-10-29T17:16:18;26.10;;;10.45;;
74510;SDS011;62991;50.040;18.400;2022-10-29T17:19:19;55.25;;;27.42;;
74510;SDS011;62991;50.040;18.400;2022-10-29T17:22:19;41.20;;;15.50;;
74510;SDS011;62991;50.040;18.400;2022-10-29T17:25:20;25.85;;;10.10;;
74510;SDS011;62991;50.040;18.400;2022-10-29T17:28:21;25.75;;;10.65;;
74510;SDS011;62991;50.040;18.400;2022-10-29T17:31:23;32.22;;;11.55;;
74510;SDS011;62991;50.040;18.400;2022-10-29T17:34:26;43.97;;;15.43;;
74510;SDS011;62991;50.040;18.400;2022-10-29T17:37:26;30.52;;;12.75;;
74510;SDS011;62991;50.040;18.400;2022-10-29T17:40:27;36.60;;;12.25;;
74510;SDS011;62991;50.040;18.400;2022-10-29T17:43:28;35.95;;;11.98;;
74510;SDS011;62991;50.040;18.400;2022-10-29T17:46:29;32.50;;;11.27;;
74510;SDS011;62991;50.040;18.400;2022-10-29T17:49:29;24.42;;;9.88;;
74510;SDS011;62991;50.040;18.400;2022-10-29T17:52:30;41.92;;;13.20;;
74510;SDS011;62991;50.040;18.400;2022-10-29T17:55:31;47.40;;;15.18;;
74510;SDS011;62991;50.040;18.400;2022-10-29T17:58:32;36.45;;;13.82;;
74510;SDS011;62991;50.040;18.400;2022-10-29T18:01:32;33.80;;;12.38;;
74510;SDS011;62991;50.040;18.400;2022-10-29T18:04:33;36.25;;;14.63;;
74510;SDS011;62991;50.040;18.400;2022-10-29T18:07:34;34.70;;;11.73;;
74510;SDS011;62991;50.040;18.400;2022-10-29T18:10:35;33.90;;;12.30;;
74510;SDS011;62991;50.040;18.400;2022-10-29T18:13:36;36.58;;;12.32;;
74510;SDS011;62991;50.040;18.400;2022-10-29T18:16:40;28.00;;;10.07;;
74510;SDS011;62991;50.040;18.400;2022-10-29T18:19:40;27.17;;;11.85;;
74510;SDS011;62991;50.040;18.400;2022-10-29T18:22:41;26.02;;;10.05;;
74510;SDS011;62991;50.040;18.400;2022-10-29T18:25:42;25.75;;;10.43;;
74510;SDS011;62991;50.040;18.400;2022-10-29T18:28:43;30.67;;;11.65;;
74510;SDS011;62991;50.040;18.400;2022-10-29T18:31:44;28.08;;;10.23;;
74510;SDS011;62991;50.040;18.400;2022-10-29T18:34:45;26.90;;;11.45;;
74510;SDS011;62991;50.040;18.400;2022-10-29T18:37:46;25.02;;;11.02;;
74510;SDS011;62991;50.040;18.400;2022-10-29T18:40:53;22.65;;;10.32;;
74510;SDS011;62991;50.040;18.400;2022-10-29T18:43:55;26.50;;;10.23;;
74510;SDS011;62991;50.040;18.400;2022-10-29T18:46:57;23.60;;;10.38;;
74510;SDS011;62991;50.040;18.400;2022-10-29T18:49:57;26.05;;;9.93;;
74510;SDS011;62991;50.040;18.400;2022-10-29T18:52:58;22.88;;;9.75;;
74510;SDS011;62991;50.040;18.400;2022-10-29T18:55:59;29.95;;;11.45;;
74510;SDS011;62991;50.040;18.400;2022-10-29T18:58:59;42.00;;;13.98;;
74510;SDS011;62991;50.040;18.400;2022-10-29T19:02:00;34.30;;;14.15;;
74510;SDS011;62991;50.040;18.400;2022-10-29T19:05:01;23.30;;;9.90;;
74510;SDS011;62991;50.040;18.400;2022-10-29T19:08:02;34.03;;;12.55;;
74510;SDS011;62991;50.040;18.400;2022-10-29T19:11:06;37.50;;;12.30;;
74510;SDS011;62991;50.040;18.400;2022-10-29T19:14:10;30.95;;;12.73;;
74510;SDS011;62991;50.040;18.400;2022-10-29T19:17:13;32.08;;;11.80;;
74510;SDS011;62991;50.040;18.400;2022-10-29T19:20:13;27.70;;;10.20;;
74510;SDS011;62991;50.040;18.400;2022-10-29T19:23:14;20.75;;;9.38;;
74510;SDS011;62991;50.040;18.400;2022-10-29T19:26:16;26.13;;;10.30;;
74510;SDS011;62991;50.040;18.400;2022-10-29T19:29:17;23.13;;;8.95;;
74510;SDS011;62991;50.040;18.400;2022-10-29T19:32:18;19.73;;;8.18;;
74510;SDS011;62991;50.040;18.400;2022-10-29T19:35:19;19.95;;;8.10;;
74510;SDS011;62991;50.040;18.400;2022-10-29T19:38:19;18.42;;;8.70;;
74510;SDS011;62991;50.040;18.400;2022-10-29T19:41:20;27.15;;;9.57;;
74510;SDS011;62991;50.040;18.400;2022-10-29T19:44:21;24.20;;;9.20;;
74510;SDS011;62991;50.040;18.400;2022-10-29T19:47:22;22.38;;;8.85;;
74510;SDS011;62991;50.040;18.400;2022-10-29T19:50:22;17.85;;;7.00;;
74510;SDS011;62991;50.040;18.400;2022-10-29T19:53:23;24.45;;;9.82;;
74510;SDS011;62991;50.040;18.400;2022-10-29T19:56:25;17.92;;;7.88;;
74510;SDS011;62991;50.040;18.400;2022-10-29T19:59:26;17.55;;;7.95;;
74510;SDS011;62991;50.040;18.400;2022-10-29T20:02:26;30.15;;;11.68;;
74510;SDS011;62991;50.040;18.400;2022-10-29T20:05:27;45.75;;;16.48;;
74510;SDS011;62991;50.040;18.400;2022-10-29T20:08:28;24.77;;;9.82;;
74510;SDS011;62991;50.040;18.400;2022-10-29T20:11:29;21.73;;;8.35;;
74510;SDS011;62991;50.040;18.400;2022-10-29T20:14:29;22.42;;;9.00;;
74510;SDS011;62991;50.040;18.400;2022-10-29T20:20:35;19.08;;;8.65;;
74510;SDS011;62991;50.040;18.400;2022-10-29T20:23:35;18.92;;;7.45;;
74510;SDS011;62991;50.040;18.400;2022-10-29T20:26:36;22.60;;;7.85;;